Data for 11/30/2006

Time Sea-Level Adjusted Pressure Absolute Pressure Temperature Relative Humidity Dew Point   
(mb) (inHg) (mb) (inHg) (C) (F) (%) (C) (F)
00:05 1023 30.21 853 25.19 -14.7 5.6 73 -18.5 -1.2
00:10 1023 30.21 852 25.16 -14.8 5.4 73 -18.6 -1.5
00:15 1023 30.21 852 25.16 -15.4 4.3 76 -18.7 -1.6
00:20 1023 30.21 852 25.16 -15.4 4.4 76 -18.7 -1.7
00:25 1023 30.21 852 25.16 -15.3 4.4 76 -18.6 -1.5
00:30 1023 30.21 852 25.16 -15.4 4.3 77 -18.6 -1.5
00:35 1023 30.21 852 25.16 -15.4 4.4 77 -18.5 -1.3
00:40 1023 30.21 852 25.16 -15.2 4.6 77 -18.4 -1.1
00:45 1023 30.21 852 25.16 -15.3 4.4 76 -18.6 -1.5
00:50 1023 30.21 852 25.16 -15.8 3.7 78 -18.8 -1.8
00:55 1023 30.21 852 25.16 -15.7 3.8 78 -18.6 -1.5
01:00 1023 30.21 852 25.16 -15.2 4.6 77 -18.4 -1.2
01:05 1023 30.21 852 25.16 -14.8 5.4 76 -18.2 -0.8
01:10 1023 30.21 852 25.16 -14.6 5.7 75 -18.2 -0.7
01:15 1023 30.21 852 25.16 -14.8 5.4 78 -17.7 0.1
01:20 1023 30.21 852 25.16 -14.9 5.1 77 -18.1 -0.5
01:25 1023 30.21 852 25.16 -14.8 5.3 75 -18.3 -0.9
01:30 1023 30.21 852 25.16 -15.1 4.9 77 -18.3 -0.9
01:35 1023 30.21 852 25.16 -15 5.1 76 -18.3 -0.9
01:40 1023 30.21 852 25.16 -15.1 4.8 76 -18.5 -1.3
01:45 1023 30.21 852 25.16 -15.4 4.2 77 -18.6 -1.5
01:50 1022 30.18 852 25.16 -15.6 3.8 77 -18.8 -1.8
01:55 1022 30.18 852 25.16 -15.8 3.5 79 -18.8 -1.8
02:00 1022 30.18 852 25.16 -15.5 4 79 -18.4 -1.1
02:05 1023 30.21 852 25.16 -15 5.1 78 -18 -0.4
02:10 1023 30.21 852 25.16 -14.7 5.6 77 -17.8 0
02:15 1023 30.21 852 25.16 -14.4 6.1 76 -17.7 0.1
02:20 1023 30.21 852 25.16 -14.1 6.6 75 -17.6 0.3
02:25 1023 30.21 852 25.16 -13.9 7 74 -17.6 0.4
02:30 1023 30.21 852 25.16 -13.7 7.3 74 -17.5 0.5
02:35 1023 30.21 852 25.16 -13.5 7.6 73 -17.5 0.6
02:40 1023 30.21 852 25.16 -13.5 7.7 74 -17.3 0.9
02:45 1023 30.21 852 25.16 -13.7 7.3 76 -17 1.4
02:50 1023 30.21 852 25.16 -13.9 7 76 -17.3 0.9
02:55 1023 30.21 852 25.16 -13.9 7 76 -17.2 1
03:00 1023 30.21 852 25.16 -13.9 7 76 -17.3 0.9
03:05 1023 30.21 852 25.16 -13.8 7.3 74 -17.5 0.5
03:10 1023 30.21 852 25.16 -13.4 8 70 -17.8 0
03:15 1023 30.21 852 25.16 -12.9 8.8 69 -17.5 0.6
03:20 1023 30.21 852 25.16 -12.8 9 70 -17.1 1.2
03:25 1022 30.18 852 25.16 -12.9 8.7 71 -17.2 1
03:30 1022 30.18 851 25.13 -13 8.7 72 -17 1.3
03:35 1022 30.18 851 25.13 -13.2 8.3 73 -17 1.5
03:40 1022 30.18 851 25.13 -13.2 8.3 74 -16.9 1.6
03:45 1022 30.18 851 25.13 -13.1 8.4 74 -16.8 1.7
03:50 1022 30.18 851 25.13 -13.1 8.4 74 -16.7 1.9
03:55 1022 30.18 851 25.13 -13.2 8.3 74 -16.8 1.7
04:00 1022 30.18 851 25.13 -13.2 8.2 74 -16.8 1.7
04:05 1022 30.18 851 25.13 -13.2 8.3 74 -16.8 1.8
04:10 1021 30.15 851 25.13 -13.1 8.4 75 -16.7 1.9
04:15 1021 30.15 851 25.13 -13 8.5 74 -16.7 2
04:20 1021 30.15 851 25.13 -12.9 8.9 74 -16.5 2.2
04:25 1021 30.15 851 25.13 -12.7 9.2 74 -16.3 2.6
04:30 1021 30.15 851 25.13 -12.5 9.4 75 -16.1 3
04:35 1021 30.15 851 25.13 -12.4 9.6 75 -16 3.2
04:40 1021 30.15 851 25.13 -12.3 9.9 75 -15.8 3.6
04:45 1021 30.15 851 25.13 -12 10.3 74 -15.7 3.7
04:50 1021 30.15 851 25.13 -11.9 10.6 72 -16 3.2
04:55 1021 30.15 851 25.13 -11.8 10.7 74 -15.5 4.1
05:00 1021 30.15 850 25.1 -11.9 10.6 70 -16.3 2.7
05:05 1021 30.15 850 25.1 -11.6 11.2 70 -16 3.1
05:10 1021 30.15 850 25.1 -11.2 11.9 70 -15.7 3.8
05:15 1021 30.15 850 25.1 -11.1 12 73 -15 5
05:20 1021 30.15 850 25.1 -10.9 12.4 73 -14.8 5.4
05:25 1021 30.15 850 25.1 -10.7 12.8 74 -14.5 5.9
05:30 1021 30.15 850 25.1 -10.7 12.8 74 -14.4 6
05:35 1021 30.15 850 25.1 -10.8 12.5 77 -14.1 6.6
05:40 1021 30.15 850 25.1 -11.4 11.5 80 -14.1 6.6
05:45 1020 30.12 850 25.1 -11.5 11.3 80 -14.2 6.4
05:50 1020 30.12 849 25.07 -11.6 11.2 79 -14.5 5.9
05:55 1020 30.12 849 25.07 -11.6 11.1 80 -14.5 6
06:00 1020 30.12 849 25.07 -11.6 11 80 -14.5 5.9
06:05 1020 30.12 849 25.07 -11.6 11.1 74 -15.3 4.5
06:10 1020 30.12 849 25.07 -11.3 11.7 74 -15 5
06:15 1020 30.12 849 25.07 -11.2 11.9 75 -14.8 5.3
06:20 1020 30.12 849 25.07 -11.3 11.8 74 -15.1 4.9
06:25 1020 30.12 849 25.07 -11.1 12 72 -15.2 4.7
06:30 1020 30.12 849 25.07 -11 12.3 72 -15 5
06:35 1020 30.12 849 25.07 -10.7 12.7 71 -15 5.1
06:40 1020 30.12 849 25.07 -10.6 13 71 -14.8 5.3
06:45 1020 30.12 849 25.07 -10.6 13 71 -14.9 5.1
06:50 1020 30.12 849 25.07 -10.1 13.7 65 -15.4 4.2
06:55 1020 30.12 849 25.07 -9.7 14.5 61 -16 3.3
07:00 1020 30.12 849 25.07 -9.7 14.6 59 -16.2 2.9
07:05 1020 30.12 849 25.07 -9.6 14.6 62 -15.7 3.7
07:10 1020 30.12 849 25.07 -9.5 14.8 62 -15.6 3.9
07:15 1019 30.09 849 25.07 -9.5 14.8 66 -14.8 5.4
07:20 1019 30.09 849 25.07 -9.5 15 66 -14.6 5.7
07:25 1020 30.12 849 25.07 -9.5 14.9 71 -13.9 6.9
07:30 1019 30.09 849 25.07 -9.6 14.8 74 -13.4 7.8
07:35 1020 30.12 849 25.07 -9.7 14.5 73 -13.7 7.4
07:40 1019 30.09 849 25.07 -10 14.1 72 -14.1 6.7
07:45 1019 30.09 849 25.07 -9.9 14.2 72 -14 6.8
07:50 1019 30.09 849 25.07 -9.8 14.4 69 -14.6 5.8
07:55 1019 30.09 848 25.04 -9.7 14.6 71 -13.9 7
08:00 1019 30.09 848 25.04 -9.8 14.4 73 -13.8 7.2
08:05 1019 30.09 848 25.04 -9.9 14.1 71 -14.2 6.4
08:10 1019 30.09 848 25.04 -9.8 14.3 71 -14.1 6.6
08:15 1019 30.09 848 25.04 -9.9 14.1 75 -13.5 7.6
08:20 1019 30.09 848 25.04 -10 14.1 78 -13.1 8.4
08:25 1019 30.09 848 25.04 -10 13.9 78 -13.1 8.4
08:30 1019 30.09 848 25.04 -9.9 14.1 78 -13.2 8.3
08:35 1019 30.09 848 25.04 -9.8 14.3 77 -13.1 8.4
08:40 1019 30.09 848 25.04 -9.9 14.3 77 -13.1 8.4
08:45 1019 30.09 848 25.04 -9.7 14.5 77 -13 8.6
08:50 1019 30.09 848 25.04 -9.4 15.2 73 -13.4 8
08:55 1019 30.09 848 25.04 -9 15.9 72 -13.1 8.5
09:00 1018 30.06 848 25.04 -8 17.6 70 -12.6 9.3
09:05 1019 30.09 848 25.04 -8.1 17.4 68 -12.9 8.7
09:10 1019 30.09 848 25.04 -8.4 17 64 -14.1 6.6
09:15 1019 30.09 848 25.04 -7.9 17.8 66 -13.2 8.2
09:20 1018 30.06 848 25.04 -7.7 18.1 66 -13 8.7
09:25 1018 30.06 847 25.01 -7.6 18.4 67 -12.7 9.1
09:30 1018 30.06 847 25.01 -7.3 18.9 58 -14.3 6.3
09:35 1018 30.06 847 25.01 -6.9 19.5 63 -12.9 8.7
09:40 1018 30.06 847 25.01 -6.8 19.8 63 -12.8 9
09:45 1018 30.06 847 25.01 -6.8 19.7 66 -12.2 10
09:50 1018 30.06 847 25.01 -6.5 20.3 63 -12.3 9.8
09:55 1018 30.06 847 25.01 -6.7 20 64 -12.4 9.7
10:00 1017 30.03 847 25.01 -6.4 20.5 64 -12.2 10.1
10:05 1017 30.03 847 25.01 -5.3 22.4 59 -12 10.3
10:10 1017 30.03 847 25.01 -5.7 21.7 59 -12.4 9.6
10:15 1018 30.06 847 25.01 -6 21.3 51 -14.6 5.7
10:20 1018 30.06 847 25.01 -5.7 21.7 57 -12.9 8.7
10:25 1017 30.03 847 25.01 -5.5 22.1 57 -12.6 9.3
10:30 1017 30.03 847 25.01 -5.2 22.6 58 -12.2 10.1
10:35 1017 30.03 847 25.01 -5.3 22.5 60 -12 10.4
10:40 1017 30.03 847 25.01 -5 22.9 58 -12 10.3
10:45 1017 30.03 847 25.01 -4.6 23.7 56 -12 10.3
10:50 1017 30.03 847 25.01 -4.5 23.8 59 -11.5 11.4
10:55 1017 30.03 846 24.98 -4.6 23.7 57 -11.8 10.8
11:00 1017 30.03 846 24.98 -4.9 23.2 59 -11.8 10.8
11:05 1017 30.03 846 24.98 -5.2 22.7 58 -12.3 9.9
11:10 1017 30.03 846 24.98 -5.2 22.6 56 -12.7 9.2
11:15 1017 30.03 846 24.98 -5.1 22.9 54 -13 8.7
11:20 1017 30.03 846 24.98 -4.9 23.1 54 -13 8.7
11:25 1017 30.03 846 24.98 -4.9 23.1 49 -14 6.7
11:30 1017 30.03 846 24.98 -5 23 53 -13.2 8.3
11:35 1017 30.03 847 25.01 -4.9 23.2 56 -12.3 9.8
11:40 1017 30.03 847 25.01 -5.2 22.6 66 -10.6 13
11:45 1017 30.03 847 25.01 -5.8 21.5 65 -11.3 11.6
11:50 1017 30.03 846 24.98 -6.3 20.6 63 -12.3 9.8
11:55 1017 30.03 846 24.98 -6.4 20.4 62 -12.6 9.4
12:00 1017 30.03 846 24.98 -6.3 20.6 64 -12.1 10.2
12:05 1017 30.03 847 25.01 -6 21.2 63 -12 10.4
12:10 1017 30.03 847 25.01 -5.8 21.5 63 -11.8 10.7
12:15 1017 30.03 846 24.98 -6.4 20.5 66 -11.8 10.7
12:20 1017 30.03 847 25.01 -7 19.4 71 -11.4 11.5
12:25 1018 30.06 847 25.01 -7.3 18.9 69 -12 10.4
12:30 1018 30.06 847 25.01 -6.3 20.6 65 -11.9 10.6
12:35 1017 30.03 847 25.01 -5.8 21.6 64 -11.7 11
12:40 1017 30.03 847 25.01 -5.6 22 64 -11.4 11.4
12:45 1017 30.03 847 25.01 -5.7 21.7 63 -11.6 11.1
12:50 1017 30.03 846 24.98 -5.1 22.8 61 -11.5 11.3
12:55 1017 30.03 847 25.01 -4.1 24.6 56 -11.7 11
13:00 1017 30.03 847 25.01 -3 26.6 55 -10.9 12.3
13:05 1017 30.03 847 25.01 -2.7 27.1 55 -10.5 13.1
13:10 1018 30.06 847 25.01 -2.9 26.8 56 -10.4 13.2
13:15 1018 30.06 847 25.01 -2.3 27.9 53 -10.6 13
13:20 1018 30.06 847 25.01 -2.1 28.3 54 -10.3 13.5
13:25 1018 30.06 847 25.01 -2.5 27.4 56 -10.1 13.9
13:30 1018 30.06 847 25.01 -2.7 27.1 57 -10 14
13:35 1018 30.06 847 25.01 -2.5 27.5 58 -9.6 14.7
13:40 1017 30.03 847 25.01 -2.5 27.4 59 -9.5 14.9
13:45 1017 30.03 846 24.98 -2.5 27.6 58 -9.6 14.7
13:50 1017 30.03 846 24.98 -2.5 27.5 59 -9.5 15
13:55 1017 30.03 846 24.98 -2.5 27.6 58 -9.6 14.7
14:00 1017 30.03 847 25.01 -2.7 27.2 60 -9.3 15.3
14:05 1017 30.03 847 25.01 -2.6 27.3 61 -9.1 15.7
14:10 1017 30.03 846 24.98 -2.5 27.5 62 -8.7 16.3
14:15 1017 30.03 846 24.98 -2.5 27.6 60 -9.2 15.5
14:20 1017 30.03 847 25.01 -2.2 28.1 59 -9.2 15.5
14:25 1017 30.03 847 25.01 -2.1 28.1 59 -9.2 15.5
14:30 1017 30.03 847 25.01 -2.1 28.3 59 -9 15.8
14:35 1017 30.03 846 24.98 -2 28.4 59 -9 15.8
14:40 1017 30.03 846 24.98 -1.9 28.6 59 -8.9 15.9
14:45 1017 30.03 846 24.98 -1.9 28.6 59 -8.8 16.1
14:50 1017 30.03 846 24.98 -1.9 28.5 60 -8.8 16.2
14:55 1017 30.03 846 24.98 -1.7 29 59 -8.6 16.5
15:00 1017 30.03 846 24.98 -1.4 29.4 59 -8.3 17
15:05 1017 30.03 846 24.98 -1.1 30.1 58 -8.3 17
15:10 1017 30.03 846 24.98 -0.8 30.5 57 -8.3 17
15:15 1017 30.03 846 24.98 -0.7 30.8 58 -8 17.6
15:20 1017 30.03 846 24.98 -0.6 31 56 -8.3 17.1
15:25 1017 30.03 847 25.01 -0.5 31.1 57 -8 17.6
15:30 1017 30.03 847 25.01 -0.5 31 57 -7.9 17.7
15:35 1017 30.03 847 25.01 -0.5 31 56 -8.3 17.1
15:40 1018 30.06 847 25.01 -0.5 31.1 55 -8.3 17
15:45 1018 30.06 847 25.01 -0.6 31 56 -8.3 17
15:50 1018 30.06 847 25.01 -0.6 30.9 56 -8.2 17.2
15:55 1018 30.06 847 25.01 -0.7 30.8 55 -8.5 16.6
16:00 1018 30.06 847 25.01 -0.6 30.8 55 -8.6 16.6
16:05 1018 30.06 847 25.01 -0.6 30.9 56 -8.3 17
16:10 1018 30.06 847 25.01 -0.7 30.8 55 -8.7 16.3
16:15 1018 30.06 847 25.01 -0.7 30.7 55 -8.6 16.6
16:20 1018 30.06 847 25.01 -0.8 30.6 56 -8.5 16.7
16:25 1018 30.06 847 25.01 -0.9 30.4 56 -8.6 16.6
16:30 1018 30.06 847 25.01 -0.9 30.4 56 -8.5 16.6
16:35 1018 30.06 847 25.01 -0.9 30.3 56 -8.6 16.6
16:40 1018 30.06 847 25.01 -1 30.2 57 -8.4 16.9
16:45 1018 30.06 847 25.01 -1.1 30.1 56 -8.8 16.1
16:50 1018 30.06 847 25.01 -1.1 30.1 57 -8.4 16.8
16:55 1018 30.06 847 25.01 -1.3 29.7 56 -8.9 16
17:00 1018 30.06 847 25.01 -1.2 29.9 56 -8.8 16.2
17:05 1018 30.06 847 25.01 -1.2 29.9 55 -9.1 15.6
17:10 1018 30.06 847 25.01 -1.2 29.8 56 -9 15.9
17:15 1018 30.06 847 25.01 -1.2 29.8 56 -8.9 15.9
17:20 1018 30.06 847 25.01 -1.3 29.6 55 -9.2 15.5
17:25 1018 30.06 847 25.01 -1.5 29.4 56 -9.1 15.6
17:30 1018 30.06 847 25.01 -1.5 29.3 56 -9 15.7
17:35 1018 30.06 847 25.01 -1.5 29.3 56 -9.2 15.5
17:40 1018 30.06 848 25.04 -1.6 29.2 56 -9.2 15.4
17:45 1018 30.06 848 25.04 -1.7 28.9 57 -9.2 15.5
17:50 1018 30.06 848 25.04 -2 28.4 57 -9.4 15
17:55 1018 30.06 848 25.04 -2.3 27.9 59 -9.3 15.2
18:00 1018 30.06 848 25.04 -2.5 27.5 60 -9.3 15.3
18:05 1018 30.06 848 25.04 -2.5 27.5 60 -9.3 15.2
18:10 1018 30.06 848 25.04 -2.4 27.6 59 -9.4 15.1
18:15 1018 30.06 848 25.04 -2.4 27.6 59 -9.3 15.2
18:20 1018 30.06 848 25.04 -2.5 27.5 57 -9.8 14.4
18:25 1018 30.06 848 25.04 -2 28.4 55 -9.8 14.3
18:30 1019 30.09 848 25.04 -1.9 28.7 56 -9.5 14.9
18:35 1019 30.09 848 25.04 -2 28.3 59 -9 15.8
18:40 1019 30.09 848 25.04 -1.9 28.5 60 -8.6 16.5
18:45 1019 30.09 848 25.04 -2 28.4 60 -8.7 16.3
18:50 1019 30.09 848 25.04 -2.2 28.1 62 -8.5 16.7
18:55 1019 30.09 848 25.04 -2.2 28 63 -8.3 17
19:00 1019 30.09 848 25.04 -2.2 28.1 63 -8.2 17.2
19:05 1019 30.09 848 25.04 -2.2 28 63 -8.4 16.9
19:10 1019 30.09 848 25.04 -2.1 28.2 62 -8.5 16.8
19:15 1019 30.09 848 25.04 -2.1 28.2 61 -8.6 16.5
19:20 1019 30.09 848 25.04 -2.3 27.8 61 -8.9 16.1
19:25 1019 30.09 848 25.04 -3.2 26.3 63 -9.1 15.5
19:30 1019 30.09 848 25.04 -3.4 25.9 63 -9.4 15
19:35 1019 30.09 848 25.04 -3.6 25.5 65 -9.4 15.1
19:40 1019 30.09 848 25.04 -3.7 25.4 64 -9.5 14.8
19:45 1019 30.09 848 25.04 -3.7 25.3 64 -9.5 14.8
19:50 1019 30.09 848 25.04 -3.8 25.1 65 -9.5 15
19:55 1019 30.09 848 25.04 -3.7 25.4 64 -9.5 14.8
20:00 1019 30.09 848 25.04 -3.6 25.5 65 -9.4 15.2
20:05 1019 30.09 848 25.04 -3.6 25.5 64 -9.4 15.1
20:10 1019 30.09 848 25.04 -3.6 25.5 65 -9.3 15.2
20:15 1019 30.09 848 25.04 -3.6 25.5 65 -9.4 15.1
20:20 1019 30.09 848 25.04 -3.6 25.5 63 -9.6 14.7
20:25 1019 30.09 848 25.04 -3.2 26.2 63 -9.3 15.3
20:30 1019 30.09 848 25.04 -2.5 27.4 57 -9.9 14.2
20:35 1019 30.09 848 25.04 -2.4 27.6 62 -8.9 16.1
20:40 1019 30.09 848 25.04 -3.1 26.4 64 -9 15.7
20:45 1019 30.09 848 25.04 -3.5 25.8 65 -9.2 15.5
20:50 1019 30.09 848 25.04 -3.7 25.4 66 -9.2 15.5
20:55 1019 30.09 848 25.04 -3.7 25.4 66 -9.1 15.6
21:00 1019 30.09 848 25.04 -3.8 25.2 67 -9.1 15.7
21:05 1019 30.09 848 25.04 -3.6 25.5 62 -9.8 14.4
21:10 1019 30.09 848 25.04 -3.2 26.2 65 -8.9 16
21:15 1019 30.09 848 25.04 -3.2 26.2 70 -7.9 17.8
21:20 1019 30.09 848 25.04 -3.2 26.2 72 -7.6 18.4
21:25 1019 30.09 848 25.04 -3.2 26.2 70 -7.8 17.9
21:30 1019 30.09 848 25.04 -3.1 26.4 68 -8.3 17.1
21:35 1019 30.09 848 25.04 -3.1 26.4 65 -8.7 16.3
21:40 1019 30.09 848 25.04 -3.1 26.4 65 -8.8 16.2
21:45 1019 30.09 848 25.04 -3.1 26.5 63 -9.1 15.7
21:50 1018 30.06 848 25.04 -3.2 26.3 62 -9.4 15
21:55 1019 30.09 848 25.04 -3.1 26.3 61 -9.7 14.6
22:00 1018 30.06 848 25.04 -3.3 26.1 61 -9.9 14.2
22:05 1019 30.09 848 25.04 -3.3 26 61 -9.9 14.2
22:10 1019 30.09 848 25.04 -3.3 26.1 60 -9.9 14.1
22:15 1019 30.09 848 25.04 -3.2 26.3 60 -9.9 14.2
22:20 1019 30.09 848 25.04 -3.1 26.5 60 -9.7 14.5
22:25 1019 30.09 848 25.04 -3.1 26.4 61 -9.6 14.8
22:30 1019 30.09 848 25.04 -3.3 26 61 -9.7 14.5
22:35 1019 30.09 848 25.04 -3.3 26.1 59 -10.3 13.5
22:40 1019 30.09 848 25.04 -2.9 26.8 56 -10.4 13.2
22:45 1018 30.06 848 25.04 -2.8 27 56 -10.3 13.4
22:50 1019 30.09 848 25.04 -2.8 26.9 55 -10.6 12.9
22:55 1019 30.09 848 25.04 -2.8 26.9 56 -10.3 13.4
23:00 1019 30.09 848 25.04 -2.9 26.7 57 -10.3 13.5
23:05 1019 30.09 848 25.04 -3 26.7 59 -10 14.1
23:10 1018 30.06 848 25.04 -3.1 26.4 58 -10.1 13.8
23:15 1018 30.06 848 25.04 -3.1 26.4 59 -10 14
23:20 1018 30.06 848 25.04 -3.1 26.3 59 -10.1 13.8
23:25 1018 30.06 848 25.04 -3.2 26.2 58 -10.3 13.5
23:30 1019 30.09 848 25.04 -3.1 26.4 58 -10.2 13.7
23:35 1019 30.09 848 25.04 -3.1 26.4 59 -9.9 14.1
23:40 1019 30.09 848 25.04 -3.2 26.3 61 -9.7 14.5
23:45 1019 30.09 848 25.04 -3.3 26.1 63 -9.4 15.2
23:50 1019 30.09 848 25.04 -3.5 25.8 66 -8.9 16.1
23:55 1019 30.09 848 25.04 -3.7 25.3 69 -8.7 16.3
24:00 1019 30.09 848 25.04 -3.8 25.2 69 -8.7 16.3